createdAt,value
2018-04-22T00:02:20.076Z,101191.91
2018-04-22T00:04:48.548Z,101191.27
2018-04-22T00:07:16.918Z,101183.56
2018-04-22T00:09:45.324Z,101183.53
2018-04-22T00:12:14.085Z,101186.98
2018-04-22T00:14:42.454Z,101179.28
2018-04-22T00:17:10.838Z,101182.20
2018-04-22T00:19:39.211Z,101177.13
2018-04-22T00:22:07.582Z,101176.02
2018-04-22T00:24:35.977Z,101176.41
2018-04-22T00:27:04.363Z,101178.77
2018-04-22T00:29:32.718Z,101168.79
2018-04-22T00:32:01.111Z,101169.49
2018-04-22T00:34:29.473Z,101167.95
2018-04-22T00:36:57.863Z,101166.93
2018-04-22T00:39:26.251Z,101168.56
2018-04-22T00:41:54.622Z,101162.75
2018-04-22T00:44:22.994Z,101165.83
2018-04-22T00:46:51.359Z,101168.45
2018-04-22T00:49:19.718Z,101159.13
2018-04-22T00:51:48.087Z,101162.13
2018-04-22T00:54:22.246Z,101160.52
2018-04-22T00:56:50.626Z,101163.53
2018-04-22T00:59:18.976Z,101165.12
2018-04-22T01:01:47.389Z,101162.87
2018-04-22T01:04:15.761Z,101165.73
2018-04-22T01:06:44.133Z,101163.91
2018-04-22T01:09:12.487Z,101166.20
2018-04-22T01:11:40.878Z,101160.34
2018-04-22T01:14:09.247Z,101163.70
2018-04-22T01:16:37.656Z,101161.95
2018-04-22T01:19:06.006Z,101164.01
2018-04-22T01:21:34.427Z,101159.07
2018-04-22T01:24:06.264Z,101161.75
2018-04-22T01:26:34.631Z,101159.32
2018-04-22T01:29:03.034Z,101163.34
2018-04-22T01:31:31.384Z,101161.16
2018-04-22T01:34:00.265Z,101166.44
2018-04-22T01:36:29.099Z,101164.69
2018-04-22T01:38:57.451Z,101157.70
2018-04-22T01:41:25.861Z,101160.38
2018-04-22T01:43:54.211Z,101162.57
2018-04-22T01:46:22.551Z,101154.00
2018-04-22T01:48:50.995Z,101160.38
2018-04-22T01:51:19.374Z,101156.20
2018-04-22T01:53:47.741Z,101154.41
2018-04-22T01:56:16.106Z,101157.30
2018-04-22T01:58:44.458Z,101156.47
2018-04-22T02:01:13.298Z,101154.20
2018-04-22T02:03:41.646Z,101155.09
2018-04-22T02:06:10.024Z,101147.48
2018-04-22T02:08:38.409Z,101149.80
2018-04-22T02:11:06.774Z,101146.20
2018-04-22T02:13:35.133Z,101138.27
2018-04-22T02:16:03.888Z,101133.97
2018-04-22T02:18:32.266Z,101140.57
2018-04-22T02:21:00.635Z,101137.92
2018-04-22T02:23:29.035Z,101132.09
2018-04-22T02:25:57.403Z,101132.56
2018-04-22T02:28:25.763Z,101129.86
2018-04-22T02:30:54.131Z,101129.88
2018-04-22T02:33:22.533Z,101127.36
2018-04-22T02:35:50.866Z,101127.97
2018-04-22T02:38:19.243Z,101116.82
2018-04-22T02:40:47.687Z,101127.05
2018-04-22T02:43:16.159Z,101116.86
2018-04-22T02:45:44.521Z,101118.39
2018-04-22T02:48:12.872Z,101123.27
2018-04-22T02:50:41.226Z,101116.24
2018-04-22T02:53:09.977Z,101115.34
2018-04-22T02:55:38.346Z,101112.06
2018-04-22T02:58:06.701Z,101109.17
2018-04-22T03:00:35.064Z,101107.41
2018-04-22T03:03:03.482Z,101106.11
2018-04-22T03:05:31.859Z,101104.48
2018-04-22T03:08:00.238Z,101103.14
2018-04-22T03:10:28.588Z,101097.58
2018-04-22T03:12:56.979Z,101096.69
2018-04-22T03:15:25.390Z,101096.15
2018-04-22T03:17:53.749Z,101102.52
2018-04-22T03:20:22.123Z,101095.38
2018-04-22T03:22:50.501Z,101102.81
2018-04-22T03:25:18.967Z,101099.75
2018-04-22T03:27:47.333Z,101101.17
2018-04-22T03:30:15.759Z,101099.41
2018-04-22T03:32:44.134Z,101091.36
2018-04-22T03:35:12.530Z,101095.44
2018-04-22T03:37:40.861Z,101091.55
2018-04-22T03:40:09.272Z,101095.82
2018-04-22T03:42:37.644Z,101093.14
2018-04-22T03:45:06.012Z,101090.92
2018-04-22T03:47:34.488Z,101088.20
2018-04-22T03:50:02.855Z,101086.79
2018-04-22T03:52:31.227Z,101094.71
2018-04-22T03:54:59.636Z,101089.81
2018-04-22T03:57:28.015Z,101093.89
2018-04-22T03:59:56.366Z,101094.39
2018-04-22T04:02:24.721Z,101095.23
2018-04-22T04:04:53.479Z,101085.53
2018-04-22T04:07:21.831Z,101081.52
2018-04-22T04:09:50.202Z,101086.05
2018-04-22T04:12:18.554Z,101087.23
2018-04-22T04:14:47.391Z,101089.55
2018-04-22T04:17:15.760Z,101098.91
2018-04-22T04:20:01.962Z,101089.10
2018-04-22T04:22:42.026Z,101096.56
2018-04-22T04:28:21.271Z,101090.05
2018-04-22T04:30:49.640Z,101089.71
2018-04-22T04:33:18.031Z,101092.72
2018-04-22T04:35:46.388Z,101086.95
2018-04-22T04:38:14.739Z,101084.09
2018-04-22T04:40:43.502Z,101083.25
2018-04-22T04:43:11.855Z,101082.47
2018-04-22T04:45:40.233Z,101084.42
2018-04-22T04:48:08.582Z,101081.27
2018-04-22T04:50:36.938Z,101085.82
2018-04-22T04:53:05.781Z,101083.36
2018-04-22T04:55:34.144Z,101083.09
2018-04-22T04:58:02.548Z,101078.92
2018-04-22T05:00:30.905Z,101072.56
2018-04-22T05:02:59.254Z,101068.78
2018-04-22T05:05:28.031Z,101078.80
2018-04-22T05:07:56.780Z,101069.42
2018-04-22T05:10:25.258Z,101069.66
2018-04-22T05:12:53.614Z,101068.69
2018-04-22T05:15:21.970Z,101069.72
2018-04-22T05:17:50.398Z,101063.98
2018-04-22T05:20:18.766Z,101064.13
2018-04-22T05:22:47.178Z,101062.84
2018-04-22T05:25:15.940Z,101064.57
2018-04-22T05:27:44.292Z,101058.91
2018-04-22T05:30:12.642Z,101063.70
2018-04-22T05:32:41.669Z,101061.83
2018-04-22T05:35:10.043Z,101063.97
2018-04-22T05:37:38.407Z,101058.78
2018-04-22T05:40:06.831Z,101056.58
2018-04-22T05:42:35.196Z,101048.69
2018-04-22T05:45:03.545Z,101050.03
2018-04-22T05:47:31.911Z,101057.63
2018-04-22T05:50:00.675Z,101053.91
2018-04-22T05:52:29.134Z,101053.63
2018-04-22T05:54:57.528Z,101056.03
2018-04-22T05:57:25.867Z,101050.95
2018-04-22T05:59:54.243Z,101043.36
2018-04-22T06:02:22.590Z,101047.17
2018-04-22T06:04:51.335Z,101048.22
2018-04-22T06:07:20.614Z,101044.16
2018-04-22T06:09:48.973Z,101047.41
2018-04-22T06:12:17.346Z,101038.53
2018-04-22T06:14:46.102Z,101041.17
2018-04-22T06:17:14.729Z,101039.72
2018-04-22T06:19:43.100Z,101035.47
2018-04-22T06:22:11.522Z,101036.15
2018-04-22T06:24:39.881Z,101038.08
2018-04-22T06:27:08.274Z,101034.92
2018-04-22T06:29:36.634Z,101035.70
2018-04-22T06:32:05.008Z,101036.29
2018-04-22T06:34:33.362Z,101032.72
2018-04-22T06:37:01.782Z,101037.53
2018-04-22T06:39:30.148Z,101036.16
2018-04-22T06:41:58.507Z,101030.80
2018-04-22T06:44:26.927Z,101031.23
2018-04-22T06:46:55.286Z,101028.03
2018-04-22T06:49:23.661Z,101022.67
2018-04-22T06:51:52.036Z,101019.06
2018-04-22T06:54:20.446Z,101022.38
2018-04-22T06:56:48.822Z,101017.75
2018-04-22T06:59:17.179Z,101014.50
2018-04-22T07:01:45.602Z,101018.20
2018-04-22T07:04:14.074Z,101016.63
2018-04-22T07:06:42.492Z,101009.95
2018-04-22T07:09:11.240Z,101007.16
2018-04-22T07:11:39.738Z,101018.66
2018-04-22T07:14:08.196Z,101011.30
2018-04-22T07:16:36.551Z,101007.84
2018-04-22T07:19:04.895Z,101006.62
2018-04-22T07:21:33.646Z,101009.38
2018-04-22T07:24:02.040Z,101008.30
2018-04-22T07:26:30.389Z,101017.11
2018-04-22T07:28:58.749Z,101011.56
2018-04-22T07:31:27.182Z,101011.97
2018-04-22T07:33:55.541Z,101009.81
2018-04-22T07:36:23.889Z,101010.61
2018-04-22T07:38:52.254Z,101005.14
2018-04-22T07:41:20.605Z,101001.82
2018-04-22T07:43:49.339Z,100998.22
2018-04-22T07:46:17.697Z,100995.93
2018-04-22T07:48:46.046Z,101004.94
2018-04-22T07:51:14.423Z,101005.02
2018-04-22T07:53:42.767Z,101008.83
2018-04-22T07:56:11.126Z,101012.74
2018-04-22T07:58:39.474Z,101011.77
2018-04-22T08:01:08.210Z,101007.55
2018-04-22T08:03:36.586Z,101015.09
2018-04-22T08:06:04.965Z,101015.02
2018-04-22T08:08:33.339Z,101011.86
2018-04-22T08:11:01.731Z,101008.23
2018-04-22T08:13:30.083Z,101008.36
2018-04-22T08:15:58.442Z,101006.59
2018-04-22T08:18:26.806Z,101001.61
2018-04-22T08:20:55.642Z,101001.38
2018-04-22T08:23:23.986Z,100999.59
2018-04-22T08:25:52.354Z,100993.52
2018-04-22T08:28:21.170Z,100995.52
2018-04-22T08:30:49.465Z,100987.38
2018-04-22T08:33:17.886Z,100989.41
2018-04-22T08:35:46.206Z,100982.84
2018-04-22T08:38:14.585Z,100986.66
2018-04-22T08:40:42.982Z,100982.31
2018-04-22T08:43:11.339Z,100985.18
2018-04-22T08:45:39.693Z,100987.31
2018-04-22T08:48:08.113Z,100987.58
2018-04-22T08:50:36.511Z,100978.22
2018-04-22T08:53:04.979Z,100983.08
2018-04-22T08:55:33.374Z,100974.50
2018-04-22T08:58:01.753Z,100971.02
2018-04-22T09:00:30.170Z,100975.41
2018-04-22T09:02:58.909Z,100973.04
2018-04-22T09:05:27.283Z,100971.59
2018-04-22T09:07:55.632Z,100963.25
2018-04-22T09:10:24.035Z,100952.13
2018-04-22T09:12:52.410Z,100958.97
2018-04-22T09:15:20.779Z,100955.54
2018-04-22T09:17:49.171Z,100951.66
2018-04-22T09:20:17.582Z,100942.99
2018-04-22T09:22:46.450Z,100936.59
2018-04-22T09:25:14.817Z,100933.60
2018-04-22T09:27:43.206Z,100925.63
2018-04-22T09:30:11.582Z,100927.73
2018-04-22T09:32:39.926Z,100919.89
2018-04-22T09:35:08.313Z,100917.94
2018-04-22T09:37:36.736Z,100924.09
2018-04-22T09:40:05.099Z,100916.55
2018-04-22T09:42:33.476Z,100912.98
2018-04-22T09:45:01.842Z,100915.92
2018-04-22T09:47:30.241Z,100908.37
2018-04-22T09:49:58.663Z,100904.58
2018-04-22T09:52:27.497Z,100896.52
2018-04-22T09:54:55.986Z,100892.75
2018-04-22T09:57:24.368Z,100893.92
2018-04-22T09:59:52.742Z,100888.19
2018-04-22T10:02:38.794Z,100887.33
2018-04-22T10:05:08.972Z,100892.50
2018-04-22T10:07:37.448Z,100888.09
2018-04-22T10:10:05.811Z,100892.03
2018-04-22T10:12:34.217Z,100885.25
2018-04-22T10:15:03.090Z,100883.47
2018-04-22T10:17:31.467Z,100881.55
2018-04-22T10:19:59.837Z,100881.69
2018-04-22T10:22:28.229Z,100880.50
2018-04-22T10:24:56.625Z,100873.64
2018-04-22T10:27:25.098Z,100868.50
2018-04-22T10:29:53.474Z,100863.02
2018-04-22T10:32:21.905Z,100863.46
2018-04-22T10:34:50.607Z,100858.28
2018-04-22T10:37:18.961Z,100855.55
2018-04-22T10:39:47.342Z,100856.50
2018-04-22T10:42:15.708Z,100848.62
2018-04-22T10:44:44.155Z,100854.76
2018-04-22T10:47:12.527Z,100842.32
2018-04-22T10:49:40.891Z,100842.75
2018-04-22T10:52:09.254Z,100842.72
2018-04-22T10:54:37.599Z,100835.20
2018-04-22T10:57:05.964Z,100845.25
2018-04-22T10:59:34.314Z,100834.66
2018-04-22T11:02:02.733Z,100841.18
2018-04-22T11:04:31.064Z,100829.84
2018-04-22T11:06:59.464Z,100827.88
2018-04-22T11:09:27.831Z,100826.87
2018-04-22T11:11:56.187Z,100817.32
2018-04-22T11:14:25.405Z,100815.67
2018-04-22T11:16:53.785Z,100809.78
2018-04-22T11:19:22.171Z,100810.83
2018-04-22T11:21:50.551Z,100810.76
2018-04-22T11:24:18.925Z,100804.86
2018-04-22T11:26:47.318Z,100803.23
2018-04-22T11:29:15.683Z,100804.59
2018-04-22T11:31:44.043Z,100803.95
2018-04-22T11:34:12.451Z,100799.66
2018-04-22T11:36:40.821Z,100793.13
2018-04-22T11:39:09.170Z,100793.78
2018-04-22T11:41:37.534Z,100788.38
2018-04-22T11:44:06.282Z,100791.82
2018-04-22T11:46:34.666Z,100783.95
2018-04-22T11:49:03.090Z,100797.30
2018-04-22T11:51:31.451Z,100779.41
2018-04-22T11:54:00.302Z,100783.36
2018-04-22T11:56:28.674Z,100776.91
2018-04-22T11:58:57.056Z,100770.64
2018-04-22T12:01:25.403Z,100766.63
2018-04-22T12:03:53.757Z,100768.06
2018-04-22T12:06:22.518Z,100764.36
2018-04-22T12:08:50.895Z,100759.61
2018-04-22T12:11:19.267Z,100760.03
2018-04-22T12:13:47.636Z,100757.45
2018-04-22T12:16:15.980Z,100755.83
2018-04-22T12:18:44.341Z,100765.61
2018-04-22T12:21:13.093Z,100770.89
2018-04-22T12:23:41.565Z,100759.64
2018-04-22T12:26:09.918Z,100764.62
2018-04-22T12:28:38.306Z,100755.01
2018-04-22T12:31:06.699Z,100757.70
2018-04-22T12:33:35.058Z,100755.78
2018-04-22T12:36:03.458Z,100746.50
2018-04-22T12:38:31.838Z,100738.34
2018-04-22T12:41:00.189Z,100740.73
2018-04-22T12:43:28.543Z,100744.77
2018-04-22T12:45:57.281Z,100735.87
2018-04-22T12:48:25.655Z,100729.33
2018-04-22T12:50:54.014Z,100737.09
2018-04-22T12:53:22.413Z,100737.74
2018-04-22T12:55:50.772Z,100730.45
2018-04-22T12:58:19.118Z,100726.64
2018-04-22T13:00:47.886Z,100720.11
2018-04-22T13:03:16.350Z,100724.52
2018-04-22T13:05:44.701Z,100724.17
2018-04-22T13:08:13.058Z,100723.95
2018-04-22T13:10:41.450Z,100717.56
2018-04-22T13:13:09.818Z,100707.27
2018-04-22T13:15:38.191Z,100700.95
2018-04-22T13:18:06.545Z,100698.80
2018-04-22T13:20:35.094Z,100692.39
2018-04-22T13:23:03.445Z,100688.88
2018-04-22T13:25:31.826Z,100683.27
2018-04-22T13:28:00.173Z,100686.48
2018-04-22T13:30:28.913Z,100685.03
2018-04-22T13:32:57.270Z,100686.25
2018-04-22T13:35:25.630Z,100677.22
2018-04-22T13:37:54.390Z,100672.16
2018-04-22T13:40:22.842Z,100665.69
2018-04-22T13:42:51.182Z,100654.98
2018-04-22T13:45:19.546Z,100656.33
2018-04-22T13:47:48.391Z,100650.34
2018-04-22T13:50:16.869Z,100646.97
2018-04-22T13:52:45.237Z,100644.17
2018-04-22T13:55:13.627Z,100640.02
2018-04-22T13:57:41.989Z,100638.53
2018-04-22T14:00:10.386Z,100632.27
2018-04-22T14:02:38.765Z,100628.52
2018-04-22T14:05:07.112Z,100628.45
2018-04-22T14:07:35.524Z,100624.47
2018-04-22T14:10:03.889Z,100628.14
2018-04-22T14:12:32.266Z,100620.54
2018-04-22T14:15:00.650Z,100615.81
2018-04-22T14:17:29.008Z,100609.45
2018-04-22T14:19:57.373Z,100610.46
2018-04-22T14:22:25.729Z,100612.56
2018-04-22T14:24:54.483Z,100604.47
2018-04-22T14:27:22.860Z,100603.98
2018-04-22T14:29:51.244Z,100600.19
2018-04-22T14:32:19.591Z,100598.82
2018-04-22T14:34:47.944Z,100606.58
2018-04-22T14:37:16.685Z,100599.45
2018-04-22T14:39:45.054Z,100595.95
2018-04-22T14:42:13.399Z,100595.38
2018-04-22T14:44:59.554Z,100594.02
2018-04-22T14:47:27.906Z,100586.09
2018-04-22T14:49:56.269Z,100589.44
2018-04-22T14:52:24.661Z,100581.62
2018-04-22T14:54:53.106Z,100576.89
2018-04-22T14:57:21.529Z,100577.44
2018-04-22T14:59:49.911Z,100576.14
2018-04-22T15:02:18.263Z,100572.95
2018-04-22T15:04:46.673Z,100567.94
2018-04-22T15:07:15.022Z,100567.20
2018-04-22T15:09:43.389Z,100566.27
2018-04-22T15:12:11.805Z,100557.12
2018-04-22T15:14:40.180Z,100560.02
2018-04-22T15:17:08.549Z,100566.26
2018-04-22T15:19:36.915Z,100556.19
2018-04-22T15:22:05.278Z,100553.62
2018-04-22T15:24:33.694Z,100546.44
2018-04-22T15:27:02.069Z,100550.28
2018-04-22T15:31:56.726Z,100538.45
2018-04-22T15:34:25.585Z,100540.92
2018-04-22T15:36:53.932Z,100535.39
2018-04-22T15:39:22.283Z,100534.03
2018-04-22T15:41:51.029Z,100522.34
2018-04-22T15:44:19.381Z,100519.11
2018-04-22T15:46:47.751Z,100522.66
2018-04-22T15:49:16.093Z,100522.77
2018-04-22T15:51:44.947Z,100514.82
2018-04-22T15:54:13.357Z,100509.20
2018-04-22T15:56:41.720Z,100519.42
2018-04-22T15:59:10.090Z,100517.24
2018-04-22T16:01:38.474Z,100513.47
2018-04-22T16:04:06.836Z,100507.86
2018-04-22T16:06:35.185Z,100511.54
2018-04-22T16:09:03.538Z,100504.84
2018-04-22T16:11:31.904Z,100505.58
2018-04-22T16:14:00.666Z,100507.63
2018-04-22T16:16:29.038Z,100505.81
2018-04-22T16:18:57.406Z,100506.72
2018-04-22T16:21:25.751Z,100495.44
2018-04-22T16:23:54.183Z,100499.16
2018-04-22T16:26:22.552Z,100499.34
2018-04-22T16:28:50.927Z,100495.28
2018-04-22T16:31:19.297Z,100495.84
2018-04-22T16:33:53.638Z,100492.55
2018-04-22T16:36:22.117Z,100496.91
2018-04-22T16:38:50.469Z,100494.36
2018-04-22T16:41:18.809Z,100498.34
2018-04-22T16:43:47.566Z,100497.13
2018-04-22T16:46:15.906Z,100495.28
2018-04-22T16:48:44.282Z,100490.84
2018-04-22T16:51:12.634Z,100489.44
2018-04-22T16:53:41.069Z,100486.91
2018-04-22T16:56:09.425Z,100481.73
2018-04-22T16:58:37.826Z,100485.63
2018-04-22T17:01:06.199Z,100481.05
2018-04-22T17:03:34.538Z,100486.75
2018-04-22T17:06:03.280Z,100475.12
2018-04-22T17:08:31.649Z,100474.69
2018-04-22T17:11:00.002Z,100470.66
2018-04-22T17:13:28.361Z,100468.44
2018-04-22T17:15:57.191Z,100476.00
2018-04-22T17:18:25.538Z,100474.98
2018-04-22T17:20:53.946Z,100467.16
2018-04-22T17:23:22.311Z,100469.03
2018-04-22T17:25:50.714Z,100466.81
2018-04-22T17:28:19.198Z,100465.94
2018-04-22T17:30:47.565Z,100459.55
2018-04-22T17:33:15.922Z,100465.25
2018-04-22T17:35:45.090Z,100460.41
2018-04-22T17:38:14.000Z,100466.66
2018-04-22T17:40:42.410Z,100462.29
2018-04-22T17:43:10.767Z,100464.83
2018-04-22T17:45:39.181Z,100460.83
2018-04-22T17:48:07.658Z,100464.89
2018-04-22T17:50:36.039Z,100458.53
2018-04-22T17:53:04.410Z,100456.67
2018-04-22T17:55:32.763Z,100456.16
2018-04-22T17:58:01.147Z,100446.55
2018-04-22T18:00:29.542Z,100452.01
2018-04-22T18:02:58.221Z,100451.07
2018-04-22T18:05:26.590Z,100456.64
2018-04-22T18:07:54.943Z,100452.64
2018-04-22T18:10:23.861Z,100458.63
2018-04-22T18:12:52.214Z,100447.62
2018-04-22T18:15:21.057Z,100452.09
2018-04-22T18:17:49.425Z,100450.97
2018-04-22T18:20:17.778Z,100454.98
2018-04-22T18:22:46.140Z,100463.20
2018-04-22T18:25:14.490Z,100456.00
2018-04-22T18:27:42.975Z,100458.05
2018-04-22T18:30:11.344Z,100461.53
2018-04-22T18:32:39.698Z,100456.89
2018-04-22T18:35:08.039Z,100450.95
2018-04-22T18:37:36.790Z,100452.77
2018-04-22T18:40:05.249Z,100454.55
2018-04-22T18:42:33.743Z,100460.89
2018-04-22T18:45:02.095Z,100461.16
2018-04-22T18:47:30.464Z,100459.54
2018-04-22T18:49:58.866Z,100460.08
2018-04-22T18:52:27.226Z,100460.64
2018-04-22T18:54:55.602Z,100462.95
2018-04-22T18:57:23.996Z,100459.45
2018-04-22T18:59:52.390Z,100456.87
2018-04-22T19:02:20.768Z,100447.58
2018-04-22T19:04:49.122Z,100447.14
2018-04-22T19:07:17.522Z,100439.92
2018-04-22T19:09:45.878Z,100448.51
2018-04-22T19:12:14.232Z,100453.77
2018-04-22T19:14:42.984Z,100455.75
2018-04-22T19:17:11.356Z,100454.76
2018-04-22T19:19:39.830Z,100444.19
2018-04-22T19:22:08.213Z,100449.10
2018-04-22T19:24:36.567Z,100440.78
2018-04-22T19:27:04.925Z,100448.45
2018-04-22T19:29:33.275Z,100450.37
2018-04-22T19:32:01.642Z,100438.55
2018-04-22T19:34:29.990Z,100434.70
2018-04-22T19:36:58.374Z,100435.80
2018-04-22T19:39:26.742Z,100433.95
2018-04-22T19:41:55.125Z,100428.67
2018-04-22T19:44:23.512Z,100425.22
2018-04-22T19:46:51.896Z,100426.57
2018-04-22T19:49:20.315Z,100428.91
2018-04-22T19:51:49.150Z,100429.87
2018-04-22T19:54:17.507Z,100424.05
2018-04-22T19:56:45.888Z,100421.73
2018-04-22T19:59:14.230Z,100424.97
2018-04-22T20:01:42.982Z,100420.58
2018-04-22T20:04:11.360Z,100412.97
2018-04-22T20:06:39.718Z,100412.65
2018-04-22T20:09:08.088Z,100416.58
2018-04-22T20:11:36.491Z,100421.70
2018-04-22T20:14:04.875Z,100422.97
2018-04-22T20:16:33.244Z,100425.04
2018-04-22T20:19:01.647Z,100419.75
2018-04-22T20:21:30.016Z,100420.30
2018-04-22T20:23:58.378Z,100428.47
2018-04-22T20:26:26.739Z,100420.24
2018-04-22T20:28:55.098Z,100418.69
2018-04-22T20:31:23.840Z,100422.38
2018-04-22T20:33:52.322Z,100420.41
2018-04-22T20:36:20.669Z,100422.12
2018-04-22T20:38:49.065Z,100426.21
2018-04-22T20:41:17.442Z,100419.72
2018-04-22T20:43:45.814Z,100426.50
2018-04-22T20:46:14.193Z,100424.34
2018-04-22T20:48:42.588Z,100422.24
2018-04-22T20:51:10.965Z,100420.77
2018-04-22T20:53:39.389Z,100420.16
2018-04-22T20:56:07.829Z,100414.72
2018-04-22T20:58:36.206Z,100429.12
2018-04-22T21:01:04.553Z,100422.16
2018-04-22T21:03:32.912Z,100418.33
2018-04-22T21:06:01.683Z,100419.80
2018-04-22T21:08:30.543Z,100416.44
2018-04-22T21:10:59.018Z,100423.72
2018-04-22T21:13:27.474Z,100436.39
2018-04-22T21:15:55.877Z,100558.87
2018-04-22T21:18:24.250Z,100558.58
2018-04-22T21:20:52.598Z,100520.20
2018-04-22T21:23:21.035Z,100500.72
2018-04-22T21:25:49.389Z,100521.89
2018-04-22T21:28:17.766Z,100508.74
2018-04-22T21:30:46.125Z,100528.04
2018-04-22T21:33:14.535Z,100521.44
2018-04-22T21:35:42.886Z,100515.02
2018-04-22T21:38:11.269Z,100505.81
2018-04-22T21:40:39.675Z,100498.86
2018-04-22T21:43:08.021Z,100498.72
2018-04-22T21:45:36.363Z,100485.70
2018-04-22T21:48:04.807Z,100498.61
2018-04-22T21:50:33.189Z,100492.02
2018-04-22T21:53:01.569Z,100484.71
2018-04-22T21:55:29.915Z,100480.96
2018-04-22T21:57:58.339Z,100480.19
2018-04-22T22:00:26.709Z,100478.42
2018-04-22T22:02:55.088Z,100478.16
2018-04-22T22:05:23.566Z,100472.47
2018-04-22T22:07:51.933Z,100472.58
2018-04-22T22:10:20.340Z,100468.42
2018-04-22T22:12:48.729Z,100472.39
2018-04-22T22:15:17.070Z,100467.95
2018-04-22T22:17:45.456Z,100460.78
2018-04-22T22:20:13.802Z,100460.93
2018-04-22T22:22:42.154Z,100442.20
2018-04-22T22:25:10.906Z,100452.48
2018-04-22T22:27:39.268Z,100449.47
2018-04-22T22:30:07.638Z,100436.70
2018-04-22T22:32:36.043Z,100434.22
2018-04-22T22:35:04.402Z,100435.47
2018-04-22T22:37:32.795Z,100421.36
2018-04-22T22:40:01.153Z,100422.49
2018-04-22T22:42:29.557Z,100410.94
2018-04-22T22:44:57.902Z,100403.86
2018-04-22T22:47:26.255Z,100399.42
2018-04-22T22:49:55.044Z,100394.41
2018-04-22T22:52:23.877Z,100397.54
2018-04-22T22:54:52.243Z,100398.17
2018-04-22T22:57:20.649Z,100392.50
2018-04-22T22:59:49.014Z,100386.48
2018-04-22T23:02:17.398Z,100385.87
2018-04-22T23:04:45.750Z,100377.73
2018-04-22T23:07:14.157Z,100376.43
2018-04-22T23:09:42.523Z,100368.56
2018-04-22T23:12:10.874Z,100363.27
2018-04-22T23:14:39.625Z,100364.82
2018-04-22T23:17:07.974Z,100361.61
2018-04-22T23:19:36.349Z,100355.71
2018-04-22T23:22:04.706Z,100355.10
2018-04-22T23:24:33.118Z,100361.84
2018-04-22T23:27:01.494Z,100364.26
2018-04-22T23:29:29.837Z,100362.47
2018-04-22T23:31:58.222Z,100357.92
2018-04-22T23:34:26.634Z,100365.83
2018-04-22T23:36:55.006Z,100363.73
2018-04-22T23:39:23.391Z,100363.04
2018-04-22T23:41:51.773Z,100364.44
2018-04-22T23:44:20.150Z,100355.13
2018-04-22T23:46:48.498Z,100361.16
2018-04-22T23:49:16.852Z,100355.95
2018-04-22T23:51:45.649Z,100345.81
2018-04-22T23:54:14.403Z,100348.30
2018-04-22T23:56:42.858Z,100340.23
2018-04-22T23:59:11.200Z,100339.47
